Time;durP1;ratioP1;P1;durP2;ratioP2;P2;SDS_P1;SDS_P2;PMS_P1;PMS_P2;Temp;Humidity;BMP_temperature;BMP_pressure;BME280_temperature;BME280_humidity;BME280_pressure;Samples;Min_cycle;Max_cycle;Signal;HPM_P1;HPM_P2
2022/08/18 00:00:13;;;;;;;35.25;25.75;;;18.40;99.90;;;;;;6303678;22;20492;-83
2022/08/18 00:02:40;;;;;;;39.72;26.67;;;19.70;99.90;;;;;;6303139;22;20014;-86
2022/08/18 00:05:06;;;;;;;39.72;26.83;;;18.50;99.90;;;;;;6304506;22;20061;-85
2022/08/18 00:07:33;;;;;;;39.80;26.67;;;18.50;99.90;;;;;;6302963;22;19999;-85
2022/08/18 00:10:00;;;;;;;36.75;26.05;;;18.70;99.90;;;;;;6275315;22;19999;-83
2022/08/18 00:12:39;;;;;;;38.95;27.48;;;18.60;99.90;;;;;;6275457;22;20011;-83
2022/08/18 00:15:07;;;;;;;39.05;27.73;;;18.80;99.90;;;;;;6302403;22;20003;-86
2022/08/18 00:17:34;;;;;;;36.72;26.17;;;18.70;99.90;;;;;;6302299;22;19995;-86
2022/08/18 00:20:00;;;;;;;42.10;27.52;;;19.30;99.90;;;;;;6302311;22;20004;-85
2022/08/18 00:22:25;;;;;;;36.22;26.83;;;18.60;99.90;;;;;;6274588;22;20008;-85
2022/08/18 00:24:56;;;;;;;34.50;25.15;;;18.70;99.90;;;;;;6302435;22;20333;-88
2022/08/18 00:27:28;;;;;;;37.35;26.45;;;18.70;99.90;;;;;;6275007;22;20011;-83
2022/08/18 00:29:56;;;;;;;41.70;27.13;;;18.60;99.90;;;;;;6275035;22;20023;-86
2022/08/18 00:32:33;;;;;;;38.90;26.65;;;18.60;99.90;;;;;;6302456;22;20010;-83
2022/08/18 00:35:30;;;;;;;41.85;28.40;;;18.60;99.90;;;;;;6302145;22;20003;-85
2022/08/18 00:37:58;;;;;;;40.37;27.77;;;18.40;99.90;;;;;;6284070;22;20014;-87
2022/08/18 00:40:30;;;;;;;42.35;28.25;;;18.50;99.90;;;;;;6302251;22;19995;-86
2022/08/18 00:43:01;;;;;;;35.45;26.80;;;18.50;99.90;;;;;;6302404;22;20031;-87
2022/08/18 00:45:31;;;;;;;39.17;28.80;;;18.30;99.90;;;;;;6274558;22;20011;-84
2022/08/18 00:47:58;;;;;;;42.03;28.67;;;18.40;99.90;;;;;;6302274;22;20003;-83
2022/08/18 00:50:37;;;;;;;42.08;28.25;;;18.30;99.90;;;;;;6302358;22;20082;-86
2022/08/18 00:53:25;;;;;;;39.33;27.23;;;18.30;99.90;;;;;;6302271;22;20074;-85
2022/08/18 00:55:51;;;;;;;43.08;28.55;;;18.40;99.90;;;;;;6274451;22;20035;-84
2022/08/18 00:58:23;;;;;;;39.88;29.05;;;18.40;99.90;;;;;;6302152;22;20433;-83
2022/08/18 01:00:50;;;;;;;39.15;28.38;;;18.40;99.90;;;;;;6274706;22;20008;-82
2022/08/18 01:03:19;;;;;;;41.67;28.35;;;18.30;99.90;;;;;;6302044;22;20064;-83
2022/08/18 01:05:55;;;;;;;42.28;28.23;;;18.40;99.90;;;;;;6301857;22;20039;-88
2022/08/18 01:08:21;;;;;;;41.28;27.92;;;18.30;99.90;;;;;;6302060;22;20002;-88
2022/08/18 01:10:52;;;;;;;39.92;30.67;;;18.30;99.90;;;;;;6274699;22;20003;-88
2022/08/18 01:13:18;;;;;;;40.08;28.25;;;18.50;99.90;;;;;;6302765;22;20023;-86
2022/08/18 01:15:44;;;;;;;45.03;28.92;;;18.30;99.90;;;;;;6304913;22;19995;-86
2022/08/18 01:24:07;;;;;;;42.25;30.25;;;18.20;99.90;;;;;;6303869;22;20042;-82
2022/08/18 01:26:36;;;;;;;43.13;29.70;;;17.90;99.90;;;;;;6276495;22;20043;-84
2022/08/18 01:29:13;;;;;;;41.45;30.52;;;18.10;99.90;;;;;;6303590;22;20002;-84
2022/08/18 01:31:53;;;;;;;40.00;28.10;;;18.20;99.90;;;;;;6303900;22;20003;-83
2022/08/18 01:34:20;;;;;;;39.88;28.45;;;18.20;99.90;;;;;;6304108;22;20021;-84
2022/08/18 01:36:46;;;;;;;46.10;30.53;;;18.00;99.90;;;;;;6276289;22;20013;-82
2022/08/18 01:39:12;;;;;;;41.35;30.17;;;18.00;99.90;;;;;;6304726;22;20075;-83
2022/08/18 01:41:39;;;;;;;42.58;30.48;;;18.00;99.90;;;;;;6303394;22;20388;-87
2022/08/18 01:44:08;;;;;;;42.85;31.45;;;18.10;99.90;;;;;;6303857;22;20061;-82
2022/08/18 01:46:34;;;;;;;43.67;29.73;;;18.00;99.90;;;;;;6303489;22;20011;-84
2022/08/18 01:49:02;;;;;;;43.05;29.30;;;18.00;99.90;;;;;;6303490;22;20007;-84
2022/08/18 01:51:31;;;;;;;38.78;27.13;;;18.10;99.90;;;;;;6276469;22;20003;-85
2022/08/18 01:53:57;;;;;;;50.47;31.77;;;18.80;99.90;;;;;;6303562;22;20003;-86
2022/08/18 01:56:26;;;;;;;40.55;28.50;;;18.00;99.90;;;;;;6303608;22;20006;-84
2022/08/18 01:58:53;;;;;;;45.33;29.20;;;18.20;99.90;;;;;;6276308;22;20006;-90
2022/08/18 02:01:19;;;;;;;47.25;29.00;;;18.00;99.90;;;;;;6303713;22;20070;-84
2022/08/18 02:03:51;;;;;;;41.25;28.85;;;18.30;99.90;;;;;;6277040;22;19999;-84
2022/08/18 02:06:18;;;;;;;39.38;29.10;;;18.30;99.90;;;;;;6276743;22;20439;-82
2022/08/18 02:08:45;;;;;;;47.70;29.55;;;18.20;99.90;;;;;;6276919;22;20003;-83
2022/08/18 02:11:11;;;;;;;48.65;31.30;;;18.20;99.90;;;;;;6303512;22;20007;-86
2022/08/18 02:13:37;;;;;;;43.13;28.55;;;18.10;99.90;;;;;;6303515;22;20652;-87
2022/08/18 02:16:04;;;;;;;38.95;27.55;;;18.10;99.90;;;;;;6303449;22;20435;-88
2022/08/18 02:18:32;;;;;;;46.83;30.48;;;18.20;99.90;;;;;;6303419;22;19996;-89
2022/08/18 02:21:11;;;;;;;43.92;30.63;;;18.10;99.90;;;;;;6303310;22;19999;-84
2022/08/18 02:23:39;;;;;;;45.05;31.42;;;17.90;99.90;;;;;;6303585;22;20010;-85
2022/08/18 02:26:10;;;;;;;50.45;31.58;;;18.10;99.90;;;;;;6302836;22;20102;-86
2022/08/18 02:28:36;;;;;;;47.60;32.95;;;18.30;99.90;;;;;;6303441;22;20003;-86
2022/08/18 02:31:07;;;;;;;45.00;29.13;;;18.00;99.90;;;;;;6303116;22;20038;-84
2022/08/18 02:33:33;;;;;;;39.50;27.60;;;18.60;99.90;;;;;;6303647;22;19999;-82
2022/08/18 02:36:00;;;;;;;38.97;28.50;;;18.00;99.90;;;;;;6275797;22;20007;-82
2022/08/18 02:38:26;;;;;;;44.30;27.60;;;18.10;99.90;;;;;;6282939;22;20006;-84
2022/08/18 02:40:56;;;;;;;42.17;29.95;;;18.00;99.90;;;;;;6312667;22;20003;-83
2022/08/18 02:43:22;;;;;;;40.55;29.38;;;18.00;99.90;;;;;;6305997;22;19996;-89
2022/08/18 02:45:49;;;;;;;47.50;29.35;;;18.30;99.90;;;;;;6304342;22;20007;-83
2022/08/18 02:48:15;;;;;;;43.67;30.00;;;18.10;99.90;;;;;;6303760;22;20007;-87
2022/08/18 02:50:45;;;;;;;45.85;29.73;;;18.10;99.90;;;;;;6303270;22;20030;-83
2022/08/18 02:53:15;;;;;;;55.03;31.83;;;18.30;99.90;;;;;;6276205;22;20007;-86
2022/08/18 02:55:41;;;;;;;40.13;28.58;;;18.00;99.90;;;;;;6303080;22;20447;-87
2022/08/18 02:58:06;;;;;;;50.20;30.83;;;18.00;99.90;;;;;;6302834;22;20010;-83
2022/08/18 03:00:32;;;;;;;45.00;30.67;;;17.80;99.90;;;;;;6302988;22;20001;-86
2022/08/18 03:02:58;;;;;;;45.33;30.20;;;17.90;99.90;;;;;;6302804;22;20034;-84
2022/08/18 03:05:23;;;;;;;41.72;28.35;;;17.90;99.90;;;;;;6303085;22;20344;-85
2022/08/18 03:07:49;;;;;;;55.55;32.28;;;17.90;99.90;;;;;;6304016;22;20440;-84
2022/08/18 03:10:15;;;;;;;67.55;31.65;;;17.80;99.90;;;;;;6275925;22;19999;-86
2022/08/18 03:12:42;;;;;;;43.83;29.35;;;17.80;99.90;;;;;;6302898;22;20030;-85
2022/08/18 03:15:08;;;;;;;44.97;31.40;;;17.70;99.90;;;;;;6302760;22;20458;-90
2022/08/18 03:17:36;;;;;;;53.75;32.50;;;17.80;99.90;;;;;;6302596;22;20027;-84
2022/08/18 03:20:03;;;;;;;45.65;28.92;;;17.90;99.90;;;;;;6302875;22;19999;-87
2022/08/18 03:22:29;;;;;;;57.53;32.22;;;17.90;99.90;;;;;;6302811;22;20048;-87
2022/08/18 03:24:55;;;;;;;46.70;31.10;;;17.80;99.90;;;;;;6275390;22;20074;-84
2022/08/18 03:27:20;;;;;;;47.20;29.92;;;17.70;99.90;;;;;;6276219;22;20102;-83
2022/08/18 03:29:46;;;;;;;56.53;30.65;;;18.20;99.90;;;;;;6303673;22;20003;-89
2022/08/18 03:32:12;;;;;;;53.13;30.60;;;17.90;99.90;;;;;;6302738;22;20331;-90
2022/08/18 03:34:38;;;;;;;53.55;30.65;;;18.00;99.90;;;;;;6275285;22;20060;-83
2022/08/18 03:37:04;;;;;;;49.75;30.38;;;17.90;99.90;;;;;;6302591;22;20449;-83
2022/08/18 03:39:30;;;;;;;41.05;28.58;;;17.90;99.90;;;;;;6302469;22;20332;-83
2022/08/18 03:41:56;;;;;;;46.08;28.63;;;17.90;99.90;;;;;;6302388;22;20002;-83
2022/08/18 03:44:23;;;;;;;50.85;31.38;;;17.90;99.90;;;;;;6303859;22;19999;-85
2022/08/18 03:46:50;;;;;;;78.47;31.90;;;17.90;99.90;;;;;;6303477;22;20022;-83
2022/08/18 03:49:17;;;;;;;41.47;29.02;;;17.90;99.90;;;;;;6302587;22;20003;-82
2022/08/18 03:51:47;;;;;;;53.20;32.70;;;17.90;99.90;;;;;;6302547;22;20419;-85
2022/08/18 03:54:15;;;;;;;52.83;32.75;;;18.00;99.90;;;;;;6302437;22;20279;-87
2022/08/18 03:56:42;;;;;;;40.85;28.70;;;17.90;99.90;;;;;;6302361;22;20006;-86
2022/08/18 03:59:18;;;;;;;48.58;29.65;;;18.00;99.90;;;;;;6274891;22;20351;-86
2022/08/18 04:01:46;;;;;;;45.35;29.10;;;17.90;99.90;;;;;;6301907;22;20010;-85
2022/08/18 04:04:18;;;;;;;42.75;27.88;;;18.20;99.90;;;;;;6302462;22;20006;-87
2022/08/18 04:06:50;;;;;;;36.60;27.20;;;18.20;99.90;;;;;;6301940;22;20309;-86
2022/08/18 04:09:17;;;;;;;76.43;30.95;;;18.20;99.90;;;;;;6302011;22;19999;-88
2022/08/18 04:11:44;;;;;;;44.35;30.40;;;17.90;99.90;;;;;;6301868;22;20004;-83
2022/08/18 04:14:17;;;;;;;52.22;31.90;;;18.00;99.90;;;;;;6301865;22;20000;-83
2022/08/18 04:16:44;;;;;;;47.75;30.38;;;18.00;99.90;;;;;;6302180;22;20060;-81
2022/08/18 04:19:12;;;;;;;44.60;29.98;;;18.10;99.90;;;;;;6302076;22;20320;-85
2022/08/18 04:21:40;;;;;;;44.13;29.20;;;18.00;99.90;;;;;;6302052;22;20000;-85
2022/08/18 04:24:07;;;;;;;;;;;18.10;99.90;;;;;;6302711;22;20003;-82
2022/08/18 04:26:51;;;;;;;42.85;29.33;;;18.00;99.90;;;;;;6302207;22;19907;-85
2022/08/18 04:29:19;;;;;;;43.85;29.67;;;18.00;99.90;;;;;;6302263;22;20015;-87
2022/08/18 04:31:46;;;;;;;47.78;30.58;;;18.10;99.90;;;;;;6301922;22;20008;-85
2022/08/18 04:34:12;;;;;;;41.65;27.55;;;18.10;99.90;;;;;;6302023;22;20344;-83
2022/08/18 04:36:40;;;;;;;46.80;29.45;;;18.10;99.90;;;;;;6296193;22;20435;-87
2022/08/18 04:39:07;;;;;;;44.07;30.13;;;19.10;99.90;;;;;;6273311;22;20078;-89
2022/08/18 04:41:34;;;;;;;40.53;29.95;;;18.10;99.90;;;;;;6301433;22;20080;-88
2022/08/18 04:44:03;;;;;;;54.28;31.23;;;18.10;99.90;;;;;;6301297;22;20021;-85
2022/08/18 04:46:29;;;;;;;43.88;29.20;;;18.20;99.90;;;;;;6274208;22;20015;-87
2022/08/18 04:48:57;;;;;;;50.90;30.90;;;18.20;99.90;;;;;;6303582;22;20003;-81
2022/08/18 04:51:25;;;;;;;;;;;18.20;99.90;;;;;;6305376;22;19999;-84
2022/08/18 04:53:51;;;;;;;44.90;29.03;;;18.10;99.90;;;;;;6305121;22;19910;-88
2022/08/18 04:56:25;;;;;;;42.08;29.35;;;18.10;99.90;;;;;;6303646;22;20013;-86
2022/08/18 04:58:53;;;;;;;42.28;29.20;;;18.20;99.90;;;;;;6276852;22;20398;-88
2022/08/18 05:01:24;;;;;;;41.15;29.33;;;18.20;99.90;;;;;;6303981;22;19999;-84
2022/08/18 05:03:52;;;;;;;40.80;28.20;;;18.30;99.90;;;;;;6305125;22;20009;-83
2022/08/18 05:06:24;;;;;;;39.47;28.70;;;18.20;99.90;;;;;;6303941;22;20011;-87
2022/08/18 05:08:54;;;;;;;42.25;29.80;;;18.20;99.90;;;;;;6304360;22;19996;-87
2022/08/18 05:11:21;;;;;;;40.67;28.27;;;18.30;99.90;;;;;;6303740;22;20347;-89
2022/08/18 05:13:48;;;;;;;39.65;28.83;;;18.30;99.90;;;;;;6304527;22;20007;-85
2022/08/18 05:16:17;;;;;;;47.72;30.42;;;18.30;99.90;;;;;;6304618;22;20003;-86
2022/08/18 05:18:42;;;;;;;38.72;28.10;;;18.20;99.90;;;;;;6276541;22;20007;-83
2022/08/18 05:21:15;;;;;;;54.72;31.27;;;18.10;99.90;;;;;;6303821;22;20076;-86
2022/08/18 05:23:47;;;;;;;49.50;30.23;;;18.10;99.90;;;;;;6303597;22;20335;-85
2022/08/18 05:26:14;;;;;;;44.15;29.63;;;18.10;99.90;;;;;;6303423;22;20007;-86
2022/08/18 05:28:44;;;;;;;45.95;31.58;;;18.10;99.90;;;;;;6275619;22;19999;-88
2022/08/18 05:31:16;;;;;;;53.47;33.20;;;18.20;99.90;;;;;;6303928;22;20003;-88
2022/08/18 05:33:42;;;;;;;51.17;32.22;;;18.10;99.90;;;;;;6277046;22;19999;-90
2022/08/18 05:36:16;;;;;;;54.92;33.08;;;18.30;99.90;;;;;;6275900;22;20003;-81
2022/08/18 05:38:54;;;;;;;52.90;32.35;;;18.30;99.90;;;;;;6303176;22;19999;-81
2022/08/18 05:41:26;;;;;;;50.38;33.40;;;18.20;99.90;;;;;;6302910;22;20006;-82
2022/08/18 05:43:53;;;;;;;50.53;31.02;;;18.30;99.90;;;;;;6276338;22;19999;-89
2022/08/18 05:46:25;;;;;;;55.70;34.83;;;18.40;99.90;;;;;;6276154;22;20035;-81
2022/08/18 05:48:50;;;;;;;52.40;34.33;;;18.20;99.90;;;;;;6277238;22;20139;-81
2022/08/18 05:51:24;;;;;;;55.90;32.75;;;18.20;99.90;;;;;;6303536;22;20078;-81
2022/08/18 05:56:47;;;;;;;50.47;32.03;;;18.50;99.90;;;;;;6303269;22;20060;-81
2022/08/18 05:59:16;;;;;;;;;;;18.60;99.90;;;;;;6303465;22;20443;-81
2022/08/18 06:01:45;;;;;;;47.08;31.38;;;18.50;99.90;;;;;;6303167;22;19982;-82
2022/08/18 06:04:50;;;;;;;49.42;32.70;;;18.50;99.90;;;;;;6303291;22;20336;-88
2022/08/18 06:07:20;;;;;;;52.33;32.85;;;18.50;99.90;;;;;;6303529;22;20038;-81
2022/08/18 06:09:50;;;;;;;51.25;33.60;;;18.60;99.90;;;;;;6303049;22;20245;-82
2022/08/18 06:12:25;;;;;;;55.47;33.47;;;18.60;99.90;;;;;;6303169;22;20007;-81
2022/08/18 06:14:53;;;;;;;51.08;33.88;;;18.80;99.90;;;;;;6303662;22;20008;-81
2022/08/18 06:17:46;;;;;;;53.08;33.55;;;18.70;99.90;;;;;;6303505;22;20010;-81
2022/08/18 06:20:15;;;;;;;55.70;32.97;;;18.70;99.90;;;;;;6303385;22;20074;-81
2022/08/18 06:22:55;;;;;;;50.40;34.08;;;18.80;99.90;;;;;;6303097;22;20003;-81
2022/08/18 06:25:44;;;;;;;54.47;33.20;;;18.80;99.90;;;;;;6303294;22;20314;-81
2022/08/18 06:28:14;;;;;;;49.85;33.75;;;18.80;99.90;;;;;;6303305;22;20394;-81
2022/08/18 06:31:04;;;;;;;55.60;34.85;;;18.80;99.90;;;;;;6275601;22;20003;-83
2022/08/18 06:33:43;;;;;;;50.60;32.60;;;18.80;99.90;;;;;;6304079;22;20000;-82
2022/08/18 06:36:16;;;;;;;60.88;36.72;;;18.80;99.90;;;;;;6303087;22;20003;-81
2022/08/18 06:39:11;;;;;;;52.80;36.40;;;18.80;99.90;;;;;;6303425;22;20002;-82
2022/08/18 06:41:47;;;;;;;49.10;33.50;;;18.80;99.90;;;;;;6260103;22;20008;-81
2022/08/18 06:44:35;;;;;;;48.88;33.25;;;18.80;99.90;;;;;;6275516;22;20003;-83
2022/08/18 06:47:14;;;;;;;54.17;33.60;;;18.60;99.90;;;;;;6304086;22;20014;-82
2022/08/18 06:49:50;;;;;;;54.10;34.00;;;18.90;99.90;;;;;;6302780;22;20030;-82
2022/08/18 06:52:20;;;;;;;52.95;33.53;;;19.00;99.90;;;;;;6302938;22;20000;-82
2022/08/18 06:54:46;;;;;;;45.75;32.10;;;18.80;99.90;;;;;;6303035;22;20057;-81
2022/08/18 06:57:30;;;;;;;62.05;37.22;;;19.00;99.90;;;;;;6275537;22;20007;-83
2022/08/18 07:00:02;;;;;;;62.28;39.03;;;18.80;99.90;;;;;;6302866;22;20006;-85
2022/08/18 07:02:53;;;;;;;62.25;37.95;;;18.60;99.90;;;;;;6303851;22;20038;-85
2022/08/18 07:05:27;;;;;;;60.03;37.75;;;18.80;99.90;;;;;;6275763;22;20007;-81
2022/08/18 07:08:10;;;;;;;52.25;35.35;;;18.80;99.90;;;;;;6302892;22;20007;-83
2022/08/18 07:10:48;;;;;;;50.22;34.67;;;18.70;99.90;;;;;;6302687;22;20018;-82
2022/08/18 07:13:27;;;;;;;54.80;33.58;;;18.80;99.90;;;;;;6275311;22;20344;-81
2022/08/18 07:16:13;;;;;;;49.42;31.65;;;18.90;99.90;;;;;;6302846;22;20064;-82
2022/08/18 07:18:42;;;;;;;52.25;34.38;;;19.10;99.90;;;;;;6302891;22;20006;-82
2022/08/18 07:21:22;;;;;;;45.83;30.75;;;18.70;99.90;;;;;;6302641;22;20069;-82
2022/08/18 07:24:01;;;;;;;48.90;35.17;;;19.00;99.90;;;;;;6302898;22;19999;-82
2022/08/18 07:26:27;;;;;;;42.17;31.40;;;18.80;99.90;;;;;;6302624;22;20056;-82
2022/08/18 07:28:53;;;;;;;56.03;36.50;;;18.80;99.90;;;;;;6302631;22;20000;-83
2022/08/18 07:31:47;;;;;;;49.75;34.67;;;18.70;99.90;;;;;;6302506;22;20488;-82
2022/08/18 07:34:17;;;;;;;43.38;30.70;;;18.90;99.90;;;;;;6302467;22;19999;-81
2022/08/18 07:37:07;;;;;;;41.08;30.35;;;18.90;99.90;;;;;;6302616;22;19996;-81
2022/08/18 07:39:58;;;;;;;41.47;29.50;;;19.10;99.90;;;;;;6303721;22;19999;-81
2022/08/18 07:42:53;;;;;;;47.45;31.70;;;19.30;99.90;;;;;;6302608;22;20062;-81
2022/08/18 07:45:28;;;;;;;39.60;30.25;;;19.40;99.90;;;;;;6302396;22;20003;-90
2022/08/18 07:47:59;;;;;;;38.55;29.52;;;19.30;99.90;;;;;;6302588;22;20015;-81
2022/08/18 07:50:26;;;;;;;44.17;32.13;;;19.20;99.90;;;;;;6302222;22;20074;-81
2022/08/18 07:53:14;;;;;;;41.25;28.92;;;19.20;99.90;;;;;;6302829;22;20004;-81
2022/08/18 07:55:46;;;;;;;41.10;29.05;;;19.20;99.90;;;;;;6277064;22;20077;-81
2022/08/18 07:58:33;;;;;;;40.13;28.23;;;19.30;99.90;;;;;;6302631;22;20006;-81
2022/08/18 08:01:04;;;;;;;42.57;28.83;;;19.40;99.90;;;;;;6276008;22;20014;-81
2022/08/18 08:03:56;;;;;;;49.97;28.92;;;19.50;99.90;;;;;;6305117;22;20279;-81
2022/08/18 08:06:32;;;;;;;42.15;28.65;;;19.40;99.90;;;;;;6305732;22;20007;-81
2022/08/18 08:09:06;;;;;;;37.17;28.52;;;19.30;99.90;;;;;;6303714;22;20109;-82
2022/08/18 08:11:58;;;;;;;43.42;30.38;;;19.40;99.90;;;;;;6303836;22;19999;-81
2022/08/18 08:14:40;;;;;;;49.67;29.17;;;19.40;99.90;;;;;;6297469;22;20402;-81
2022/08/18 08:17:16;;;;;;;41.00;29.27;;;19.40;99.90;;;;;;6303249;22;20450;-81
2022/08/18 08:20:14;;;;;;;41.35;27.33;;;19.60;99.90;;;;;;6302164;22;20003;-91
2022/08/18 08:23:09;;;;;;;37.13;27.25;;;19.70;99.90;;;;;;6274989;22;20056;-91
2022/08/18 08:25:40;;;;;;;36.17;26.38;;;19.60;99.90;;;;;;6305546;22;20007;-81
2022/08/18 08:28:43;;;;;;;33.53;25.33;;;19.50;99.90;;;;;;6305309;22;20000;-81
2022/08/18 08:31:17;;;;;;;36.17;25.63;;;19.60;99.90;;;;;;6276889;22;19999;-81
2022/08/18 08:34:01;;;;;;;31.55;23.30;;;19.70;99.90;;;;;;6304608;22;20037;-81
2022/08/18 08:36:32;;;;;;;31.92;23.50;;;19.70;99.90;;;;;;6304546;22;20241;-81
2022/08/18 08:39:04;;;;;;;30.00;22.60;;;19.70;99.90;;;;;;6304574;22;20249;-83
2022/08/18 08:42:12;;;;;;;29.90;21.33;;;19.80;99.90;;;;;;6304305;22;19995;-81
2022/08/18 08:44:53;;;;;;;27.98;20.08;;;20.00;99.90;;;;;;6292520;22;20008;-82
2022/08/18 08:47:31;;;;;;;31.73;20.92;;;20.20;99.90;;;;;;6304264;22;20015;-81
2022/08/18 08:50:02;;;;;;;36.63;22.08;;;20.30;99.90;;;;;;6304380;22;20074;-86
2022/08/18 08:52:44;;;;;;;29.17;20.27;;;20.20;99.90;;;;;;6304055;22;20344;-82
2022/08/18 08:55:24;;;;;;;24.35;18.08;;;20.20;99.90;;;;;;6303946;22;20041;-81
2022/08/18 08:58:36;;;;;;;25.85;17.70;;;20.20;99.90;;;;;;6304242;22;20004;-82
2022/08/18 09:01:02;;;;;;;28.88;18.52;;;20.20;99.90;;;;;;6209644;23;20009;-81
2022/08/18 09:03:54;;;;;;;24.60;18.73;;;20.10;99.90;;;;;;6292369;22;20027;-81
2022/08/18 09:06:46;;;;;;;23.05;16.60;;;20.00;99.90;;;;;;6303974;22;20323;-81
2022/08/18 09:09:21;;;;;;;21.95;16.30;;;20.70;99.90;;;;;;6304119;22;20428;-81
2022/08/18 09:11:54;;;;;;;21.80;15.77;;;20.00;99.90;;;;;;6303936;22;19995;-81
2022/08/18 09:14:39;;;;;;;17.58;14.70;;;20.10;99.90;;;;;;6304132;22;20471;-81
2022/08/18 09:17:23;;;;;;;21.25;15.38;;;20.10;99.90;;;;;;6305103;22;19999;-91
2022/08/18 09:20:15;;;;;;;19.00;14.43;;;20.20;99.90;;;;;;6304059;22;20500;-81
2022/08/18 09:22:52;;;;;;;18.83;14.15;;;20.30;99.90;;;;;;6304016;22;20070;-81
2022/08/18 09:25:42;;;;;;;17.52;11.40;;;20.40;99.90;;;;;;6303920;22;20010;-81
2022/08/18 09:28:26;;;;;;;17.85;11.98;;;20.50;99.90;;;;;;6305086;22;20007;-82
2022/08/18 09:31:01;;;;;;;18.42;13.27;;;20.50;99.90;;;;;;6303841;22;19999;-82
2022/08/18 09:33:39;;;;;;;16.67;13.52;;;20.40;99.90;;;;;;6303460;22;20014;-81
2022/08/18 09:36:24;;;;;;;21.70;13.60;;;20.60;99.90;;;;;;6304910;22;20003;-81
2022/08/18 09:41:55;;;;;;;19.40;13.65;;;20.80;99.90;;;;;;6303591;22;20098;-82
2022/08/18 09:44:45;;;;;;;17.20;12.57;;;21.00;99.90;;;;;;6303506;22;20340;-81
2022/08/18 09:47:23;;;;;;;16.65;12.73;;;21.10;99.90;;;;;;6303700;22;20482;-81
2022/08/18 09:49:52;;;;;;;12.40;10.07;;;21.20;99.90;;;;;;6303335;22;20003;-81
2022/08/18 09:52:21;;;;;;;19.40;12.50;;;21.30;99.90;;;;;;6303698;22;20004;-81
2022/08/18 09:55:01;;;;;;;14.00;10.00;;;21.20;99.90;;;;;;6303630;22;20003;-81
2022/08/18 09:57:30;;;;;;;13.38;9.35;;;21.20;99.90;;;;;;6303630;22;20052;-81
2022/08/18 10:00:02;;;;;;;12.05;10.02;;;21.20;99.90;;;;;;6303679;22;19999;-81
2022/08/18 10:02:27;;;;;;;16.63;11.60;;;21.40;99.90;;;;;;6303707;22;20030;-81
2022/08/18 10:05:18;;;;;;;13.50;10.25;;;21.40;99.90;;;;;;6303511;22;20331;-88
2022/08/18 10:08:02;;;;;;;11.10;9.18;;;21.60;99.90;;;;;;6303459;22;20011;-83
2022/08/18 10:10:44;;;;;;;16.92;9.20;;;21.70;99.90;;;;;;6303554;22;20011;-81
2022/08/18 10:13:29;;;;;;;16.27;9.15;;;21.50;99.90;;;;;;6304652;22;20003;-81
2022/08/18 10:16:05;;;;;;;13.05;8.55;;;21.50;99.90;;;;;;6304006;22;20006;-83
2022/08/18 10:18:45;;;;;;;17.10;8.68;;;21.50;99.90;;;;;;6303442;22;20003;-91
2022/08/18 10:21:26;;;;;;;10.95;8.63;;;21.30;99.90;;;;;;6304676;22;20030;-81
2022/08/18 10:24:04;;;;;;;13.48;8.73;;;21.20;99.90;;;;;;6302967;22;20515;-81
2022/08/18 10:26:30;;;;;;;;;;;21.20;99.90;;;;;;6303711;22;20007;-82
2022/08/18 10:28:57;;;;;;;16.85;8.80;;;21.50;99.90;;;;;;6303361;22;19906;-82
2022/08/18 10:31:24;;;;;;;14.95;8.68;;;21.60;99.90;;;;;;6303373;22;20417;-90
2022/08/18 10:33:56;;;;;;;9.18;7.45;;;21.90;99.90;;;;;;6303371;22;20000;-82
2022/08/18 10:36:44;;;;;;;11.60;8.05;;;21.60;99.90;;;;;;6303299;22;20087;-81
2022/08/18 10:39:14;;;;;;;13.82;8.05;;;21.30;99.90;;;;;;6276930;22;20331;-91
2022/08/18 10:41:57;;;;;;;13.32;9.27;;;21.20;99.90;;;;;;6304269;22;20352;-93
2022/08/18 10:44:23;;;;;;;11.85;8.05;;;21.40;99.90;;;;;;6305312;22;19980;-82
2022/08/18 10:46:51;;;;;;;8.70;6.28;;;21.70;99.90;;;;;;6307790;22;20067;-82
2022/08/18 10:49:26;;;;;;;12.45;6.10;;;21.80;99.90;;;;;;6304238;22;20405;-82
2022/08/18 10:52:14;;;;;;;7.80;5.07;;;21.80;99.90;;;;;;6303357;22;20008;-82
2022/08/18 10:54:55;;;;;;;6.80;5.22;;;22.00;99.90;;;;;;6304019;22;19995;-82
2022/08/18 10:57:59;;;;;;;13.00;5.88;;;22.00;99.90;;;;;;6303092;22;20045;-81
2022/08/18 11:00:52;;;;;;;6.93;5.30;;;22.10;99.90;;;;;;6259449;22;20061;-83
2022/08/18 11:03:41;;;;;;;10.32;5.88;;;22.20;99.90;;;;;;6302989;22;19999;-82
2022/08/18 11:06:13;;;;;;;15.02;5.68;;;22.50;99.90;;;;;;6233211;22;20043;-89
2022/08/18 11:08:47;;;;;;;8.10;5.20;;;22.50;99.90;;;;;;6303160;22;20064;-88
2022/08/18 11:11:18;;;;;;;7.40;6.28;;;22.50;99.90;;;;;;6304018;22;20431;-82
2022/08/18 11:13:53;;;;;;;15.82;6.93;;;22.70;99.90;;;;;;6303945;22;20432;-82
2022/08/18 11:16:41;;;;;;;11.45;7.38;;;22.40;99.90;;;;;;6303018;22;20010;-82
2022/08/18 11:19:10;;;;;;;12.80;7.00;;;22.30;99.90;;;;;;6303089;22;20003;-81
2022/08/18 11:21:36;;;;;;;10.32;6.15;;;22.30;99.90;;;;;;6275725;22;20321;-85
2022/08/18 11:24:11;;;;;;;10.60;5.75;;;22.50;99.90;;;;;;6302847;22;20459;-91
2022/08/18 11:26:58;;;;;;;10.57;5.68;;;22.60;99.90;;;;;;6302821;22;20236;-82
2022/08/18 11:29:39;;;;;;;10.27;5.88;;;22.60;99.90;;;;;;6302140;22;20005;-81
2022/08/18 11:32:13;;;;;;;9.75;6.45;;;22.70;99.90;;;;;;6302871;22;19999;-82
2022/08/18 11:34:42;;;;;;;8.70;6.75;;;22.80;99.90;;;;;;6302783;22;20006;-82
2022/08/18 11:37:40;;;;;;;7.88;5.60;;;22.90;99.90;;;;;;6302498;22;20079;-87
2022/08/18 11:40:18;;;;;;;11.25;5.18;;;23.10;99.90;;;;;;6302901;22;20078;-82
2022/08/18 11:42:57;;;;;;;8.90;5.45;;;23.10;99.90;;;;;;6303637;22;20067;-93
2022/08/18 11:45:25;;;;;;;9.70;5.80;;;22.90;99.90;;;;;;6302542;22;19999;-89
2022/08/18 11:48:01;;;;;;;6.50;5.05;;;22.80;99.90;;;;;;6302451;22;20049;-82
2022/08/18 11:50:29;;;;;;;12.02;5.25;;;22.80;99.90;;;;;;6302868;22;19999;-82
2022/08/18 11:52:55;;;;;;;9.77;5.50;;;22.70;99.90;;;;;;6275313;22;20004;-82
2022/08/18 11:55:32;;;;;;;9.18;5.13;;;22.60;99.90;;;;;;6275208;22;20004;-82
2022/08/18 11:57:58;;;;;;;7.05;5.18;;;22.50;99.90;;;;;;6302822;22;20007;-82
2022/08/18 12:00:44;;;;;;;6.30;4.60;;;22.40;99.90;;;;;;6302184;22;19999;-82
2022/08/18 12:03:30;;;;;;;6.90;5.25;;;22.40;99.90;;;;;;6302916;22;20003;-82
2022/08/18 12:06:11;;;;;;;7.70;4.65;;;22.50;99.90;;;;;;6302527;22;20007;-84
2022/08/18 12:09:10;;;;;;;10.15;4.13;;;22.50;99.90;;;;;;6302362;22;20339;-82
2022/08/18 12:11:48;;;;;;;8.75;4.95;;;22.50;99.90;;;;;;6244862;22;20435;-82
2022/08/18 12:14:22;;;;;;;8.00;5.18;;;22.40;99.90;;;;;;6303508;22;19999;-84
2022/08/18 12:16:49;;;;;;;7.45;4.93;;;22.30;99.90;;;;;;6303414;22;20049;-92
2022/08/18 12:19:16;;;;;;;10.02;5.20;;;22.20;99.90;;;;;;6275842;22;20004;-91
2022/08/18 12:21:50;;;;;;;10.27;4.95;;;22.30;99.90;;;;;;6302658;22;20451;-81
2022/08/18 12:24:24;;;;;;;9.80;5.20;;;22.30;99.90;;;;;;6303550;22;20004;-82
2022/08/18 12:26:50;;;;;;;8.48;4.72;;;22.60;99.90;;;;;;6302137;22;20007;-81
2022/08/18 12:29:17;;;;;;;8.90;4.82;;;22.80;99.90;;;;;;6303306;22;20045;-82
2022/08/18 12:31:51;;;;;;;10.73;4.90;;;22.80;99.90;;;;;;6302119;22;20007;-81
2022/08/18 12:34:19;;;;;;;9.20;5.13;;;22.90;99.90;;;;;;6303654;22;20005;-82
2022/08/18 12:36:45;;;;;;;;;;;22.90;99.90;;;;;;6303860;22;20068;-82
2022/08/18 12:39:12;;;;;;;9.68;4.80;;;23.20;99.90;;;;;;6302374;22;19912;-82
2022/08/18 12:41:37;;;;;;;7.32;3.95;;;23.00;99.90;;;;;;6302091;22;20007;-88
2022/08/18 12:44:03;;;;;;;8.13;4.65;;;23.10;99.90;;;;;;6302257;22;20074;-81
2022/08/18 12:46:29;;;;;;;8.38;4.10;;;23.40;99.90;;;;;;6302457;22;20007;-85
2022/08/18 12:48:55;;;;;;;7.15;4.07;;;23.20;99.90;;;;;;6302057;22;20007;-82
2022/08/18 12:51:21;;;;;;;6.72;3.88;;;23.20;99.90;;;;;;6302442;22;20003;-81
2022/08/18 12:53:47;;;;;;;6.63;4.10;;;23.10;99.90;;;;;;6303379;22;20432;-88
2022/08/18 12:56:29;;;;;;;6.28;3.95;;;22.90;99.90;;;;;;6302125;22;20000;-91
2022/08/18 12:58:55;;;;;;;9.18;4.22;;;23.10;99.90;;;;;;6302051;22;19999;-82
2022/08/18 13:01:23;;;;;;;8.80;4.20;;;23.30;99.90;;;;;;6302496;22;20428;-81
2022/08/18 13:03:54;;;;;;;6.03;4.10;;;23.30;99.90;;;;;;6303144;22;19996;-82
2022/08/18 13:06:23;;;;;;;5.63;4.45;;;23.70;99.90;;;;;;6303154;22;20043;-82
2022/08/18 13:08:51;;;;;;;8.63;3.97;;;23.20;99.90;;;;;;6303423;22;20015;-82
2022/08/18 13:11:18;;;;;;;5.50;4.35;;;24.00;99.90;;;;;;6305012;22;20030;-90
2022/08/18 13:13:44;;;;;;;8.55;3.75;;;23.30;99.90;;;;;;6304192;22;20003;-82
2022/08/18 13:16:12;;;;;;;9.38;3.75;;;23.30;99.90;;;;;;6304040;22;20074;-82